sensor_id;sensor_type;location;lat;lon;timestamp;P1;durP1;ratioP1;P2;durP2;ratioP2
17566;SDS011;8901;52.088;5.084;2023-11-19T00:00:16;26.20;;;24.23;;
17566;SDS011;8901;52.088;5.084;2023-11-19T00:02:44;28.03;;;26.00;;
17566;SDS011;8901;52.088;5.084;2023-11-19T00:05:12;26.40;;;24.57;;
17566;SDS011;8901;52.088;5.084;2023-11-19T00:07:39;27.03;;;25.17;;
17566;SDS011;8901;52.088;5.084;2023-11-19T00:10:09;27.60;;;25.43;;
17566;SDS011;8901;52.088;5.084;2023-11-19T00:12:37;27.67;;;25.57;;
17566;SDS011;8901;52.088;5.084;2023-11-19T00:15:05;28.47;;;26.17;;
17566;SDS011;8901;52.088;5.084;2023-11-19T00:17:36;25.60;;;23.57;;
17566;SDS011;8901;52.088;5.084;2023-11-19T00:20:05;27.87;;;25.67;;
17566;SDS011;8901;52.088;5.084;2023-11-19T00:22:32;28.83;;;26.60;;
17566;SDS011;8901;52.088;5.084;2023-11-19T00:24:59;28.70;;;26.47;;
17566;SDS011;8901;52.088;5.084;2023-11-19T00:27:28;27.77;;;25.90;;
17566;SDS011;8901;52.088;5.084;2023-11-19T00:29:55;30.27;;;27.57;;
17566;SDS011;8901;52.088;5.084;2023-11-19T00:32:23;30.80;;;27.97;;
17566;SDS011;8901;52.088;5.084;2023-11-19T00:34:50;29.70;;;26.93;;
17566;SDS011;8901;52.088;5.084;2023-11-19T00:37:17;29.37;;;27.13;;
17566;SDS011;8901;52.088;5.084;2023-11-19T00:39:44;30.87;;;28.37;;
17566;SDS011;8901;52.088;5.084;2023-11-19T00:42:12;30.27;;;27.63;;
17566;SDS011;8901;52.088;5.084;2023-11-19T00:44:41;29.37;;;26.70;;
17566;SDS011;8901;52.088;5.084;2023-11-19T00:47:08;30.03;;;27.30;;
17566;SDS011;8901;52.088;5.084;2023-11-19T00:49:35;29.57;;;27.17;;
17566;SDS011;8901;52.088;5.084;2023-11-19T00:52:02;29.60;;;26.90;;
17566;SDS011;8901;52.088;5.084;2023-11-19T00:54:31;29.97;;;27.17;;
17566;SDS011;8901;52.088;5.084;2023-11-19T00:56:58;30.77;;;27.57;;
17566;SDS011;8901;52.088;5.084;2023-11-19T00:59:26;30.73;;;27.50;;
17566;SDS011;8901;52.088;5.084;2023-11-19T01:01:56;28.83;;;26.43;;
17566;SDS011;8901;52.088;5.084;2023-11-19T01:04:24;28.70;;;25.87;;
17566;SDS011;8901;52.088;5.084;2023-11-19T01:06:51;30.60;;;28.07;;
17566;SDS011;8901;52.088;5.084;2023-11-19T01:09:19;30.37;;;27.50;;
17566;SDS011;8901;52.088;5.084;2023-11-19T01:11:46;31.63;;;28.63;;
17566;SDS011;8901;52.088;5.084;2023-11-19T01:14:14;30.87;;;27.37;;
17566;SDS011;8901;52.088;5.084;2023-11-19T01:16:42;31.63;;;28.37;;
17566;SDS011;8901;52.088;5.084;2023-11-19T01:19:11;31.27;;;27.83;;
17566;SDS011;8901;52.088;5.084;2023-11-19T01:21:38;31.83;;;29.07;;
17566;SDS011;8901;52.088;5.084;2023-11-19T01:24:06;29.87;;;27.27;;
17566;SDS011;8901;52.088;5.084;2023-11-19T01:26:34;30.43;;;28.03;;
17566;SDS011;8901;52.088;5.084;2023-11-19T01:29:01;30.33;;;27.87;;
17566;SDS011;8901;52.088;5.084;2023-11-19T01:31:29;32.77;;;29.57;;
17566;SDS011;8901;52.088;5.084;2023-11-19T01:33:57;31.93;;;28.83;;
17566;SDS011;8901;52.088;5.084;2023-11-19T01:36:25;30.60;;;27.80;;
17566;SDS011;8901;52.088;5.084;2023-11-19T01:38:53;30.47;;;27.93;;
17566;SDS011;8901;52.088;5.084;2023-11-19T01:41:20;32.17;;;29.07;;
17566;SDS011;8901;52.088;5.084;2023-11-19T01:43:47;32.43;;;29.67;;
17566;SDS011;8901;52.088;5.084;2023-11-19T01:46:15;30.37;;;28.30;;
17566;SDS011;8901;52.088;5.084;2023-11-19T01:48:42;33.97;;;30.53;;
17566;SDS011;8901;52.088;5.084;2023-11-19T01:51:11;33.03;;;29.27;;
17566;SDS011;8901;52.088;5.084;2023-11-19T01:53:43;32.27;;;29.67;;
17566;SDS011;8901;52.088;5.084;2023-11-19T01:56:11;31.97;;;29.23;;
17566;SDS011;8901;52.088;5.084;2023-11-19T01:58:40;31.80;;;29.23;;
17566;SDS011;8901;52.088;5.084;2023-11-19T02:01:08;33.87;;;30.73;;
17566;SDS011;8901;52.088;5.084;2023-11-19T02:03:36;35.43;;;29.53;;
17566;SDS011;8901;52.088;5.084;2023-11-19T02:06:03;33.37;;;29.93;;
17566;SDS011;8901;52.088;5.084;2023-11-19T02:08:31;35.03;;;31.83;;
17566;SDS011;8901;52.088;5.084;2023-11-19T02:10:59;34.60;;;30.07;;
17566;SDS011;8901;52.088;5.084;2023-11-19T02:13:27;34.20;;;30.53;;
17566;SDS011;8901;52.088;5.084;2023-11-19T02:15:54;33.87;;;30.57;;
17566;SDS011;8901;52.088;5.084;2023-11-19T02:18:22;33.97;;;30.53;;
17566;SDS011;8901;52.088;5.084;2023-11-19T02:20:52;33.57;;;30.17;;
17566;SDS011;8901;52.088;5.084;2023-11-19T02:23:20;34.07;;;30.47;;
17566;SDS011;8901;52.088;5.084;2023-11-19T02:25:53;32.67;;;29.73;;
17566;SDS011;8901;52.088;5.084;2023-11-19T02:28:22;34.87;;;31.53;;
17566;SDS011;8901;52.088;5.084;2023-11-19T02:30:50;32.87;;;30.00;;
17566;SDS011;8901;52.088;5.084;2023-11-19T02:33:18;36.93;;;33.40;;
17566;SDS011;8901;52.088;5.084;2023-11-19T02:35:45;34.10;;;30.90;;
17566;SDS011;8901;52.088;5.084;2023-11-19T02:38:12;34.97;;;31.67;;
17566;SDS011;8901;52.088;5.084;2023-11-19T02:40:40;34.37;;;31.00;;
17566;SDS011;8901;52.088;5.084;2023-11-19T02:43:07;35.00;;;31.60;;
17566;SDS011;8901;52.088;5.084;2023-11-19T02:45:36;36.83;;;31.63;;
17566;SDS011;8901;52.088;5.084;2023-11-19T02:48:03;34.40;;;30.80;;
17566;SDS011;8901;52.088;5.084;2023-11-19T02:50:31;34.87;;;31.37;;
17566;SDS011;8901;52.088;5.084;2023-11-19T02:52:58;38.63;;;30.37;;
17566;SDS011;8901;52.088;5.084;2023-11-19T02:55:26;33.13;;;29.60;;
17566;SDS011;8901;52.088;5.084;2023-11-19T02:57:56;32.73;;;29.33;;
17566;SDS011;8901;52.088;5.084;2023-11-19T03:00:24;38.47;;;31.40;;
17566;SDS011;8901;52.088;5.084;2023-11-19T03:03:00;35.77;;;32.23;;
17566;SDS011;8901;52.088;5.084;2023-11-19T03:05:42;34.83;;;30.80;;
17566;SDS011;8901;52.088;5.084;2023-11-19T03:08:11;34.10;;;30.67;;
17566;SDS011;8901;52.088;5.084;2023-11-19T03:10:38;40.63;;;33.17;;
17566;SDS011;8901;52.088;5.084;2023-11-19T03:13:06;34.67;;;31.00;;
17566;SDS011;8901;52.088;5.084;2023-11-19T03:15:38;34.97;;;30.77;;
17566;SDS011;8901;52.088;5.084;2023-11-19T03:18:06;38.13;;;31.03;;
17566;SDS011;8901;52.088;5.084;2023-11-19T03:20:33;34.57;;;30.30;;
17566;SDS011;8901;52.088;5.084;2023-11-19T03:23:01;37.43;;;32.43;;
17566;SDS011;8901;52.088;5.084;2023-11-19T03:25:28;34.13;;;30.63;;
17566;SDS011;8901;52.088;5.084;2023-11-19T03:27:58;34.90;;;31.13;;
17566;SDS011;8901;52.088;5.084;2023-11-19T03:30:26;35.10;;;31.43;;
17566;SDS011;8901;52.088;5.084;2023-11-19T03:32:54;35.27;;;31.60;;
17566;SDS011;8901;52.088;5.084;2023-11-19T03:35:23;34.97;;;30.57;;
17566;SDS011;8901;52.088;5.084;2023-11-19T03:37:50;35.10;;;31.33;;
17566;SDS011;8901;52.088;5.084;2023-11-19T03:40:18;37.80;;;32.03;;
17566;SDS011;8901;52.088;5.084;2023-11-19T03:42:45;38.80;;;32.27;;
17566;SDS011;8901;52.088;5.084;2023-11-19T03:45:12;34.03;;;30.93;;
17566;SDS011;8901;52.088;5.084;2023-11-19T03:47:40;37.57;;;31.10;;
17566;SDS011;8901;52.088;5.084;2023-11-19T03:50:08;33.00;;;29.30;;
17566;SDS011;8901;52.088;5.084;2023-11-19T03:52:36;35.47;;;31.70;;
17566;SDS011;8901;52.088;5.084;2023-11-19T03:55:04;33.67;;;30.83;;
17566;SDS011;8901;52.088;5.084;2023-11-19T03:57:33;34.83;;;31.50;;
17566;SDS011;8901;52.088;5.084;2023-11-19T04:00:00;34.43;;;31.03;;
17566;SDS011;8901;52.088;5.084;2023-11-19T04:02:33;35.17;;;31.83;;
17566;SDS011;8901;52.088;5.084;2023-11-19T04:05:00;36.10;;;32.10;;
17566;SDS011;8901;52.088;5.084;2023-11-19T04:07:28;34.33;;;30.67;;
17566;SDS011;8901;52.088;5.084;2023-11-19T04:09:56;36.97;;;31.73;;
17566;SDS011;8901;52.088;5.084;2023-11-19T04:12:24;36.47;;;32.77;;
17566;SDS011;8901;52.088;5.084;2023-11-19T04:14:51;36.47;;;32.80;;
17566;SDS011;8901;52.088;5.084;2023-11-19T04:17:18;36.03;;;32.27;;
17566;SDS011;8901;52.088;5.084;2023-11-19T04:19:45;38.00;;;31.60;;
17566;SDS011;8901;52.088;5.084;2023-11-19T04:22:13;38.17;;;33.47;;
17566;SDS011;8901;52.088;5.084;2023-11-19T04:24:40;36.73;;;32.80;;
17566;SDS011;8901;52.088;5.084;2023-11-19T04:27:10;35.57;;;31.80;;
17566;SDS011;8901;52.088;5.084;2023-11-19T04:29:37;42.80;;;33.77;;
17566;SDS011;8901;52.088;5.084;2023-11-19T04:32:05;40.80;;;30.60;;
17566;SDS011;8901;52.088;5.084;2023-11-19T04:34:32;34.00;;;30.93;;
17566;SDS011;8901;52.088;5.084;2023-11-19T04:37:00;36.13;;;32.50;;
17566;SDS011;8901;52.088;5.084;2023-11-19T04:39:28;37.30;;;32.83;;
17566;SDS011;8901;52.088;5.084;2023-11-19T04:41:55;36.60;;;32.63;;
17566;SDS011;8901;52.088;5.084;2023-11-19T04:44:24;35.33;;;31.07;;
17566;SDS011;8901;52.088;5.084;2023-11-19T04:46:51;39.60;;;31.80;;
17566;SDS011;8901;52.088;5.084;2023-11-19T04:49:18;35.93;;;32.50;;
17566;SDS011;8901;52.088;5.084;2023-11-19T04:51:45;43.07;;;34.30;;
17566;SDS011;8901;52.088;5.084;2023-11-19T04:54:13;36.67;;;32.67;;
17566;SDS011;8901;52.088;5.084;2023-11-19T04:56:40;36.37;;;32.73;;
17566;SDS011;8901;52.088;5.084;2023-11-19T04:59:07;35.23;;;31.80;;
17566;SDS011;8901;52.088;5.084;2023-11-19T05:01:36;35.50;;;31.90;;
17566;SDS011;8901;52.088;5.084;2023-11-19T05:04:03;36.07;;;32.37;;
17566;SDS011;8901;52.088;5.084;2023-11-19T05:06:32;35.60;;;32.27;;
17566;SDS011;8901;52.088;5.084;2023-11-19T05:09:00;35.33;;;32.03;;
17566;SDS011;8901;52.088;5.084;2023-11-19T05:11:29;35.63;;;32.20;;
17566;SDS011;8901;52.088;5.084;2023-11-19T05:13:56;36.10;;;31.97;;
17566;SDS011;8901;52.088;5.084;2023-11-19T05:16:23;37.37;;;33.67;;
17566;SDS011;8901;52.088;5.084;2023-11-19T05:18:52;35.17;;;31.80;;
17566;SDS011;8901;52.088;5.084;2023-11-19T05:21:19;36.47;;;32.77;;
17566;SDS011;8901;52.088;5.084;2023-11-19T05:23:47;35.70;;;32.07;;
17566;SDS011;8901;52.088;5.084;2023-11-19T05:26:17;35.63;;;32.07;;
17566;SDS011;8901;52.088;5.084;2023-11-19T05:28:44;35.07;;;31.63;;
17566;SDS011;8901;52.088;5.084;2023-11-19T05:31:12;33.47;;;30.27;;
17566;SDS011;8901;52.088;5.084;2023-11-19T05:33:39;35.03;;;31.10;;
17566;SDS011;8901;52.088;5.084;2023-11-19T05:36:07;34.13;;;30.73;;
17566;SDS011;8901;52.088;5.084;2023-11-19T05:38:35;34.13;;;30.93;;
17566;SDS011;8901;52.088;5.084;2023-11-19T05:41:02;34.67;;;31.03;;
17566;SDS011;8901;52.088;5.084;2023-11-19T05:43:30;35.50;;;31.87;;
17566;SDS011;8901;52.088;5.084;2023-11-19T05:45:57;37.53;;;31.77;;
17566;SDS011;8901;52.088;5.084;2023-11-19T05:48:25;35.97;;;31.37;;
17566;SDS011;8901;52.088;5.084;2023-11-19T05:50:53;35.70;;;30.87;;
17566;SDS011;8901;52.088;5.084;2023-11-19T05:53:21;42.60;;;31.53;;
17566;SDS011;8901;52.088;5.084;2023-11-19T05:55:49;33.67;;;29.50;;
17566;SDS011;8901;52.088;5.084;2023-11-19T05:58:22;35.80;;;31.80;;
17566;SDS011;8901;52.088;5.084;2023-11-19T06:00:51;38.43;;;31.03;;
17566;SDS011;8901;52.088;5.084;2023-11-19T06:03:18;34.63;;;31.10;;
17566;SDS011;8901;52.088;5.084;2023-11-19T06:05:46;35.80;;;32.30;;
17566;SDS011;8901;52.088;5.084;2023-11-19T06:08:13;33.37;;;29.80;;
17566;SDS011;8901;52.088;5.084;2023-11-19T06:10:42;32.90;;;28.97;;
17566;SDS011;8901;52.088;5.084;2023-11-19T06:13:11;32.27;;;29.37;;
17566;SDS011;8901;52.088;5.084;2023-11-19T06:15:40;37.13;;;31.67;;
17566;SDS011;8901;52.088;5.084;2023-11-19T06:18:07;35.87;;;31.93;;
17566;SDS011;8901;52.088;5.084;2023-11-19T06:20:36;35.50;;;30.57;;
17566;SDS011;8901;52.088;5.084;2023-11-19T06:23:03;32.93;;;29.57;;
17566;SDS011;8901;52.088;5.084;2023-11-19T06:25:30;35.17;;;28.97;;
17566;SDS011;8901;52.088;5.084;2023-11-19T06:27:59;33.80;;;29.40;;
17566;SDS011;8901;52.088;5.084;2023-11-19T06:30:26;32.83;;;29.27;;
17566;SDS011;8901;52.088;5.084;2023-11-19T06:32:55;41.63;;;31.93;;
17566;SDS011;8901;52.088;5.084;2023-11-19T06:35:22;35.33;;;30.97;;
17566;SDS011;8901;52.088;5.084;2023-11-19T06:37:49;33.27;;;29.57;;
17566;SDS011;8901;52.088;5.084;2023-11-19T06:40:16;35.07;;;30.87;;
17566;SDS011;8901;52.088;5.084;2023-11-19T06:42:44;32.67;;;29.13;;
17566;SDS011;8901;52.088;5.084;2023-11-19T06:45:13;34.67;;;29.63;;
17566;SDS011;8901;52.088;5.084;2023-11-19T06:47:41;36.23;;;29.90;;
17566;SDS011;8901;52.088;5.084;2023-11-19T06:50:08;32.80;;;29.47;;
17566;SDS011;8901;52.088;5.084;2023-11-19T06:52:37;32.47;;;29.10;;
17566;SDS011;8901;52.088;5.084;2023-11-19T06:55:05;31.87;;;28.43;;
17566;SDS011;8901;52.088;5.084;2023-11-19T06:57:32;32.90;;;29.70;;
17566;SDS011;8901;52.088;5.084;2023-11-19T07:00:00;34.30;;;29.87;;
17566;SDS011;8901;52.088;5.084;2023-11-19T07:02:28;37.40;;;29.70;;
17566;SDS011;8901;52.088;5.084;2023-11-19T07:04:56;34.40;;;30.80;;
17566;SDS011;8901;52.088;5.084;2023-11-19T07:07:23;34.97;;;31.73;;
17566;SDS011;8901;52.088;5.084;2023-11-19T07:09:50;34.63;;;30.13;;
17566;SDS011;8901;52.088;5.084;2023-11-19T07:12:17;33.97;;;30.73;;
17566;SDS011;8901;52.088;5.084;2023-11-19T07:14:44;39.67;;;31.90;;
17566;SDS011;8901;52.088;5.084;2023-11-19T07:17:12;34.90;;;31.13;;
17566;SDS011;8901;52.088;5.084;2023-11-19T07:19:41;34.10;;;31.17;;
17566;SDS011;8901;52.088;5.084;2023-11-19T07:22:09;34.63;;;31.27;;
17566;SDS011;8901;52.088;5.084;2023-11-19T07:24:38;40.97;;;30.73;;
17566;SDS011;8901;52.088;5.084;2023-11-19T07:27:05;35.77;;;31.97;;
17566;SDS011;8901;52.088;5.084;2023-11-19T07:29:33;37.53;;;30.40;;
17566;SDS011;8901;52.088;5.084;2023-11-19T07:32:01;32.83;;;29.53;;
17566;SDS011;8901;52.088;5.084;2023-11-19T07:34:28;32.40;;;29.03;;
17566;SDS011;8901;52.088;5.084;2023-11-19T07:36:56;34.57;;;30.83;;
17566;SDS011;8901;52.088;5.084;2023-11-19T07:39:27;32.00;;;28.70;;
17566;SDS011;8901;52.088;5.084;2023-11-19T07:41:54;34.57;;;30.33;;
17566;SDS011;8901;52.088;5.084;2023-11-19T07:44:21;33.10;;;29.77;;
17566;SDS011;8901;52.088;5.084;2023-11-19T07:46:49;32.30;;;29.27;;
17566;SDS011;8901;52.088;5.084;2023-11-19T07:49:16;39.13;;;30.10;;
17566;SDS011;8901;52.088;5.084;2023-11-19T07:51:43;37.00;;;31.07;;
17566;SDS011;8901;52.088;5.084;2023-11-19T07:54:13;33.80;;;30.27;;
17566;SDS011;8901;52.088;5.084;2023-11-19T07:56:40;34.73;;;31.03;;
17566;SDS011;8901;52.088;5.084;2023-11-19T07:59:07;33.43;;;29.93;;
17566;SDS011;8901;52.088;5.084;2023-11-19T08:01:34;34.67;;;31.10;;
17566;SDS011;8901;52.088;5.084;2023-11-19T08:04:01;31.47;;;28.60;;
17566;SDS011;8901;52.088;5.084;2023-11-19T08:06:28;33.57;;;28.60;;
17566;SDS011;8901;52.088;5.084;2023-11-19T08:08:56;31.37;;;28.13;;
17566;SDS011;8901;52.088;5.084;2023-11-19T08:11:25;39.57;;;30.53;;
17566;SDS011;8901;52.088;5.084;2023-11-19T08:13:53;34.37;;;30.80;;
17566;SDS011;8901;52.088;5.084;2023-11-19T08:16:20;33.20;;;29.73;;
17566;SDS011;8901;52.088;5.084;2023-11-19T08:18:47;34.40;;;30.67;;
17566;SDS011;8901;52.088;5.084;2023-11-19T08:21:14;32.87;;;27.73;;
17566;SDS011;8901;52.088;5.084;2023-11-19T08:23:41;34.90;;;30.13;;
17566;SDS011;8901;52.088;5.084;2023-11-19T08:26:09;31.30;;;28.47;;
17566;SDS011;8901;52.088;5.084;2023-11-19T08:28:37;33.87;;;27.07;;
17566;SDS011;8901;52.088;5.084;2023-11-19T08:31:04;33.03;;;29.03;;
17566;SDS011;8901;52.088;5.084;2023-11-19T08:33:31;37.17;;;27.30;;
17566;SDS011;8901;52.088;5.084;2023-11-19T08:35:58;32.17;;;28.50;;
17566;SDS011;8901;52.088;5.084;2023-11-19T08:38:26;36.90;;;27.90;;
17566;SDS011;8901;52.088;5.084;2023-11-19T08:40:53;32.27;;;28.23;;
17566;SDS011;8901;52.088;5.084;2023-11-19T08:43:24;32.53;;;28.57;;
17566;SDS011;8901;52.088;5.084;2023-11-19T08:45:53;35.33;;;29.23;;
17566;SDS011;8901;52.088;5.084;2023-11-19T08:48:20;37.20;;;28.50;;
17566;SDS011;8901;52.088;5.084;2023-11-19T08:50:47;30.63;;;27.13;;
17566;SDS011;8901;52.088;5.084;2023-11-19T08:53:14;32.73;;;27.93;;
17566;SDS011;8901;52.088;5.084;2023-11-19T08:55:42;34.10;;;29.50;;
17566;SDS011;8901;52.088;5.084;2023-11-19T08:58:09;32.27;;;28.97;;
17566;SDS011;8901;52.088;5.084;2023-11-19T09:00:36;36.47;;;28.70;;
17566;SDS011;8901;52.088;5.084;2023-11-19T09:03:04;37.57;;;27.97;;
17566;SDS011;8901;52.088;5.084;2023-11-19T09:05:32;35.07;;;28.00;;
17566;SDS011;8901;52.088;5.084;2023-11-19T09:07:59;32.93;;;27.57;;
17566;SDS011;8901;52.088;5.084;2023-11-19T09:10:26;29.00;;;26.07;;
17566;SDS011;8901;52.088;5.084;2023-11-19T09:12:54;36.23;;;27.67;;
17566;SDS011;8901;52.088;5.084;2023-11-19T09:15:21;34.20;;;27.53;;
17566;SDS011;8901;52.088;5.084;2023-11-19T09:17:49;32.20;;;28.43;;
17566;SDS011;8901;52.088;5.084;2023-11-19T09:20:17;30.83;;;25.87;;
17566;SDS011;8901;52.088;5.084;2023-11-19T09:22:44;31.23;;;27.80;;
17566;SDS011;8901;52.088;5.084;2023-11-19T09:25:12;31.17;;;27.90;;
17566;SDS011;8901;52.088;5.084;2023-11-19T09:27:42;32.10;;;27.50;;
17566;SDS011;8901;52.088;5.084;2023-11-19T09:30:09;35.57;;;28.13;;
17566;SDS011;8901;52.088;5.084;2023-11-19T09:32:37;31.83;;;28.00;;
17566;SDS011;8901;52.088;5.084;2023-11-19T09:35:05;29.60;;;26.80;;
17566;SDS011;8901;52.088;5.084;2023-11-19T09:37:34;31.00;;;26.90;;
17566;SDS011;8901;52.088;5.084;2023-11-19T09:40:01;27.83;;;24.90;;
17566;SDS011;8901;52.088;5.084;2023-11-19T09:42:28;29.70;;;26.53;;
17566;SDS011;8901;52.088;5.084;2023-11-19T09:44:57;31.87;;;27.50;;
17566;SDS011;8901;52.088;5.084;2023-11-19T09:47:26;28.60;;;25.03;;
17566;SDS011;8901;52.088;5.084;2023-11-19T09:49:54;34.70;;;27.50;;
17566;SDS011;8901;52.088;5.084;2023-11-19T09:52:27;29.70;;;26.57;;
17566;SDS011;8901;52.088;5.084;2023-11-19T09:54:56;33.03;;;26.83;;
17566;SDS011;8901;52.088;5.084;2023-11-19T09:57:24;32.00;;;28.17;;
17566;SDS011;8901;52.088;5.084;2023-11-19T09:59:51;32.33;;;24.43;;
17566;SDS011;8901;52.088;5.084;2023-11-19T10:02:19;29.53;;;26.07;;
17566;SDS011;8901;52.088;5.084;2023-11-19T10:04:46;29.80;;;26.83;;
17566;SDS011;8901;52.088;5.084;2023-11-19T10:07:15;33.43;;;27.13;;
17566;SDS011;8901;52.088;5.084;2023-11-19T10:09:42;32.13;;;28.60;;
17566;SDS011;8901;52.088;5.084;2023-11-19T10:12:13;33.20;;;27.57;;
17566;SDS011;8901;52.088;5.084;2023-11-19T10:14:41;33.50;;;28.00;;
17566;SDS011;8901;52.088;5.084;2023-11-19T10:17:09;33.40;;;28.43;;
17566;SDS011;8901;52.088;5.084;2023-11-19T10:19:36;30.97;;;27.80;;
17566;SDS011;8901;52.088;5.084;2023-11-19T10:22:07;31.73;;;28.33;;
17566;SDS011;8901;52.088;5.084;2023-11-19T10:24:35;32.67;;;29.43;;
17566;SDS011;8901;52.088;5.084;2023-11-19T10:27:04;32.20;;;29.07;;
17566;SDS011;8901;52.088;5.084;2023-11-19T10:29:37;34.13;;;30.80;;
17566;SDS011;8901;52.088;5.084;2023-11-19T10:32:04;35.23;;;31.50;;
17566;SDS011;8901;52.088;5.084;2023-11-19T10:34:31;35.30;;;31.53;;
17566;SDS011;8901;52.088;5.084;2023-11-19T10:36:58;34.23;;;30.60;;
17566;SDS011;8901;52.088;5.084;2023-11-19T10:39:29;34.27;;;31.03;;
17566;SDS011;8901;52.088;5.084;2023-11-19T10:42:05;30.03;;;27.37;;
17566;SDS011;8901;52.088;5.084;2023-11-19T10:44:43;34.10;;;30.33;;
17566;SDS011;8901;52.088;5.084;2023-11-19T10:47:10;33.63;;;30.03;;
17566;SDS011;8901;52.088;5.084;2023-11-19T10:49:37;31.83;;;28.93;;
17566;SDS011;8901;52.088;5.084;2023-11-19T10:52:05;37.13;;;28.43;;
17566;SDS011;8901;52.088;5.084;2023-11-19T10:54:35;29.70;;;26.53;;
17566;SDS011;8901;52.088;5.084;2023-11-19T10:57:02;34.70;;;28.37;;
17566;SDS011;8901;52.088;5.084;2023-11-19T10:59:31;31.10;;;28.07;;
17566;SDS011;8901;52.088;5.084;2023-11-19T11:02:00;32.93;;;29.27;;
17566;SDS011;8901;52.088;5.084;2023-11-19T11:04:31;31.70;;;28.77;;
17566;SDS011;8901;52.088;5.084;2023-11-19T11:07:00;33.93;;;30.30;;
17566;SDS011;8901;52.088;5.084;2023-11-19T11:09:29;30.87;;;27.90;;
17566;SDS011;8901;52.088;5.084;2023-11-19T11:11:57;32.80;;;29.57;;
17566;SDS011;8901;52.088;5.084;2023-11-19T11:14:25;30.83;;;28.13;;
17566;SDS011;8901;52.088;5.084;2023-11-19T11:16:55;33.17;;;27.50;;
17566;SDS011;8901;52.088;5.084;2023-11-19T11:19:24;35.40;;;28.93;;
17566;SDS011;8901;52.088;5.084;2023-11-19T11:21:53;33.57;;;30.27;;
17566;SDS011;8901;52.088;5.084;2023-11-19T11:24:33;31.97;;;29.13;;
17566;SDS011;8901;52.088;5.084;2023-11-19T11:27:09;32.23;;;28.83;;
17566;SDS011;8901;52.088;5.084;2023-11-19T11:29:41;31.73;;;28.57;;
17566;SDS011;8901;52.088;5.084;2023-11-19T11:32:16;33.20;;;29.70;;
17566;SDS011;8901;52.088;5.084;2023-11-19T11:34:53;32.40;;;29.03;;
17566;SDS011;8901;52.088;5.084;2023-11-19T11:37:30;30.33;;;28.00;;
17566;SDS011;8901;52.088;5.084;2023-11-19T11:39:58;33.93;;;29.17;;
17566;SDS011;8901;52.088;5.084;2023-11-19T11:42:32;33.93;;;30.33;;
17566;SDS011;8901;52.088;5.084;2023-11-19T11:44:58;34.03;;;30.40;;
17566;SDS011;8901;52.088;5.084;2023-11-19T11:50:12;32.00;;;28.97;;
17566;SDS011;8901;52.088;5.084;2023-11-19T11:55:23;34.03;;;30.33;;
17566;SDS011;8901;52.088;5.084;2023-11-19T11:57:50;32.43;;;29.27;;
17566;SDS011;8901;52.088;5.084;2023-11-19T12:00:21;31.63;;;28.67;;
17566;SDS011;8901;52.088;5.084;2023-11-19T12:02:48;32.60;;;29.50;;
17566;SDS011;8901;52.088;5.084;2023-11-19T12:05:17;31.73;;;28.80;;
17566;SDS011;8901;52.088;5.084;2023-11-19T12:07:49;32.47;;;28.80;;
17566;SDS011;8901;52.088;5.084;2023-11-19T12:10:23;29.80;;;27.10;;
17566;SDS011;8901;52.088;5.084;2023-11-19T12:12:52;30.53;;;27.57;;
17566;SDS011;8901;52.088;5.084;2023-11-19T12:15:19;30.60;;;27.87;;
17566;SDS011;8901;52.088;5.084;2023-11-19T12:17:50;32.07;;;29.13;;
17566;SDS011;8901;52.088;5.084;2023-11-19T12:20:19;30.63;;;28.23;;
17566;SDS011;8901;52.088;5.084;2023-11-19T12:22:46;34.73;;;31.00;;
17566;SDS011;8901;52.088;5.084;2023-11-19T12:25:14;32.37;;;29.23;;
17566;SDS011;8901;52.088;5.084;2023-11-19T12:27:43;32.67;;;28.53;;
17566;SDS011;8901;52.088;5.084;2023-11-19T12:30:11;32.10;;;28.93;;
17566;SDS011;8901;52.088;5.084;2023-11-19T12:32:39;34.13;;;28.63;;
17566;SDS011;8901;52.088;5.084;2023-11-19T12:35:06;31.20;;;28.27;;
17566;SDS011;8901;52.088;5.084;2023-11-19T12:37:41;31.53;;;28.43;;
17566;SDS011;8901;52.088;5.084;2023-11-19T12:40:16;31.90;;;28.17;;
17566;SDS011;8901;52.088;5.084;2023-11-19T12:42:44;34.47;;;28.17;;
17566;SDS011;8901;52.088;5.084;2023-11-19T12:45:11;31.93;;;28.57;;
17566;SDS011;8901;52.088;5.084;2023-11-19T12:47:38;31.20;;;28.47;;
17566;SDS011;8901;52.088;5.084;2023-11-19T12:50:06;31.47;;;28.40;;
17566;SDS011;8901;52.088;5.084;2023-11-19T12:52:34;30.43;;;27.43;;
17566;SDS011;8901;52.088;5.084;2023-11-19T12:55:03;31.93;;;28.57;;
17566;SDS011;8901;52.088;5.084;2023-11-19T12:57:37;28.87;;;26.37;;
17566;SDS011;8901;52.088;5.084;2023-11-19T13:00:05;33.60;;;29.37;;
17566;SDS011;8901;52.088;5.084;2023-11-19T13:02:45;29.97;;;27.30;;
17566;SDS011;8901;52.088;5.084;2023-11-19T13:05:26;31.13;;;28.00;;
17566;SDS011;8901;52.088;5.084;2023-11-19T13:08:00;31.93;;;28.70;;
17566;SDS011;8901;52.088;5.084;2023-11-19T13:10:29;30.20;;;27.70;;
17566;SDS011;8901;52.088;5.084;2023-11-19T13:12:59;31.77;;;27.27;;
17566;SDS011;8901;52.088;5.084;2023-11-19T13:15:26;32.93;;;27.60;;
17566;SDS011;8901;52.088;5.084;2023-11-19T13:17:54;31.83;;;27.33;;
17566;SDS011;8901;52.088;5.084;2023-11-19T13:20:21;26.43;;;24.37;;
17566;SDS011;8901;52.088;5.084;2023-11-19T13:22:54;30.17;;;27.20;;
17566;SDS011;8901;52.088;5.084;2023-11-19T13:25:22;31.70;;;27.87;;
17566;SDS011;8901;52.088;5.084;2023-11-19T13:27:50;34.53;;;28.40;;
17566;SDS011;8901;52.088;5.084;2023-11-19T13:30:17;29.30;;;26.57;;
17566;SDS011;8901;52.088;5.084;2023-11-19T13:32:44;28.47;;;25.73;;
17566;SDS011;8901;52.088;5.084;2023-11-19T13:35:12;31.83;;;28.13;;
17566;SDS011;8901;52.088;5.084;2023-11-19T13:37:39;33.27;;;28.40;;
17566;SDS011;8901;52.088;5.084;2023-11-19T13:40:07;28.63;;;25.83;;
17566;SDS011;8901;52.088;5.084;2023-11-19T13:42:35;29.70;;;26.70;;
17566;SDS011;8901;52.088;5.084;2023-11-19T13:45:07;30.43;;;27.40;;
17566;SDS011;8901;52.088;5.084;2023-11-19T13:47:36;32.87;;;29.60;;
17566;SDS011;8901;52.088;5.084;2023-11-19T13:50:08;28.63;;;26.00;;
17566;SDS011;8901;52.088;5.084;2023-11-19T13:52:35;30.47;;;27.27;;
17566;SDS011;8901;52.088;5.084;2023-11-19T13:55:05;32.47;;;28.57;;
17566;SDS011;8901;52.088;5.084;2023-11-19T13:57:32;31.37;;;27.57;;
17566;SDS011;8901;52.088;5.084;2023-11-19T13:59:59;28.00;;;25.63;;
17566;SDS011;8901;52.088;5.084;2023-11-19T14:02:30;28.47;;;26.13;;
17566;SDS011;8901;52.088;5.084;2023-11-19T14:04:58;30.70;;;27.60;;
17566;SDS011;8901;52.088;5.084;2023-11-19T14:07:25;28.10;;;25.10;;
17566;SDS011;8901;52.088;5.084;2023-11-19T14:09:52;30.20;;;26.67;;
17566;SDS011;8901;52.088;5.084;2023-11-19T14:12:20;32.90;;;26.07;;
17566;SDS011;8901;52.088;5.084;2023-11-19T14:14:47;29.23;;;26.23;;
17566;SDS011;8901;52.088;5.084;2023-11-19T14:17:14;30.70;;;27.17;;
17566;SDS011;8901;52.088;5.084;2023-11-19T14:19:43;30.43;;;27.47;;
17566;SDS011;8901;52.088;5.084;2023-11-19T14:22:10;29.03;;;26.03;;
17566;SDS011;8901;52.088;5.084;2023-11-19T14:24:37;26.60;;;24.43;;
17566;SDS011;8901;52.088;5.084;2023-11-19T14:27:07;26.77;;;23.97;;
17566;SDS011;8901;52.088;5.084;2023-11-19T14:29:34;28.80;;;26.13;;
17566;SDS011;8901;52.088;5.084;2023-11-19T14:32:01;28.83;;;26.23;;
17566;SDS011;8901;52.088;5.084;2023-11-19T14:34:29;28.57;;;25.97;;
17566;SDS011;8901;52.088;5.084;2023-11-19T14:36:58;31.23;;;28.17;;
17566;SDS011;8901;52.088;5.084;2023-11-19T14:39:26;29.73;;;26.70;;
17566;SDS011;8901;52.088;5.084;2023-11-19T14:41:54;28.87;;;25.40;;
17566;SDS011;8901;52.088;5.084;2023-11-19T14:44:23;29.47;;;26.27;;